Search for airport 
image banner adimage banner adimage banner ad
image banner ad

7IA7 - Mitchell Field

Located in New Hampton, United States

ICAO - 7IA7, IATA -

Data provided by Airmate  

General information

Coordinates: N43°5'1" W92°18'36"
Elevation is 1160 feet MSL.
Magnetic variation is 02° East
View others Airports in Iowa

Operational data

Special qualification required
Current time UTC:
Current local time:
Weather at : KCCY - Northeast Iowa Rgnl ( 24 km )
METAR: KCCY 210235Z AUTO 31011G16KT CLR 15/14 A2988 RMK AO2
View NOTAMs / SUP AIP / TFR affecting this airport [VIEW]
Communications frequencies: [VIEW]

Runways:

RWY identifierQFULength (ft)Width (ft)SurfaceLDA (ft)
06150016CONC
24150016CONC

Airport contact information

Address: New Hampton United States

Satellite view of 7IA7